Time;durP1;ratioP1;P1;durP2;ratioP2;P2;SDS_P1;SDS_P2;PMS_P1;PMS_P2;Temp;Humidity;BMP_temperature;BMP_pressure;BME280_temperature;BME280_humidity;BME280_pressure;Samples;Min_cycle;Max_cycle;Signal;HPM_P1;HPM_P2
2022/12/29 00:01:30;;;;;;;3.73;3.43;;;9.80;99.90;;;;;;5093431;28;20223;-68
2022/12/29 00:03:56;;;;;;;3.50;3.30;;;9.80;99.90;;;;;;5093433;28;20180;-68
2022/12/29 00:06:21;;;;;;;3.73;3.47;;;9.90;99.90;;;;;;5092183;28;20181;-68
2022/12/29 00:08:47;;;;;;;3.30;3.10;;;10.00;99.90;;;;;;5093226;28;20272;-68
2022/12/29 00:11:20;;;;;;;3.63;3.33;;;10.10;99.90;;;;;;5093457;28;20173;-68
2022/12/29 00:16:30;;;;;;;3.20;3.03;;;10.10;99.90;;;;;;5093701;28;20157;-68
2022/12/29 00:18:57;;;;;;;3.30;3.10;;;10.10;99.90;;;;;;5093563;28;20185;-68
2022/12/29 00:35:31;;;;;;;3.40;3.20;;;10.40;99.90;;;;;;5097511;28;20172;-68
2022/12/29 00:46:17;;;;;;;3.30;3.00;;;10.20;99.90;;;;;;5097426;28;20171;-69
2022/12/29 00:51:27;;;;;;;3.03;2.80;;;10.20;99.90;;;;;;5097212;28;20663;-68
2022/12/29 00:53:53;;;;;;;3.17;3.00;;;10.20;99.90;;;;;;5096987;28;20177;-68
2022/12/29 00:56:19;;;;;;;3.37;3.17;;;10.20;99.90;;;;;;5096879;28;20174;-69
2022/12/29 00:58:44;;;;;;;3.30;3.00;;;10.20;99.90;;;;;;5096799;28;20188;-70
2022/12/29 01:01:10;;;;;;;3.00;2.90;;;10.20;99.90;;;;;;5095442;28;20276;-69
2022/12/29 01:03:37;;;;;;;3.10;2.90;;;10.20;99.90;;;;;;5096822;28;20311;-68
2022/12/29 01:06:06;;;;;;;3.20;3.00;;;10.20;99.90;;;;;;5097058;28;20230;-69
2022/12/29 01:08:32;;;;;;;3.30;3.10;;;10.20;99.90;;;;;;5095224;28;20197;-68
2022/12/29 01:11:07;;;;;;;3.00;2.80;;;10.20;99.90;;;;;;5095411;28;20177;-68
2022/12/29 01:13:33;;;;;;;3.17;2.97;;;10.20;99.90;;;;;;5096552;28;20244;-68
2022/12/29 01:15:59;;;;;;;2.97;2.80;;;10.20;99.90;;;;;;5096723;28;20705;-69
2022/12/29 01:18:26;;;;;;;3.10;3.00;;;10.20;99.90;;;;;;5096620;28;20224;-68
2022/12/29 01:20:59;;;;;;;3.00;2.90;;;10.20;99.90;;;;;;5096394;28;20176;-70
2022/12/29 01:23:25;;;;;;;3.40;3.27;;;10.20;99.90;;;;;;5096629;28;20211;-69
2022/12/29 01:25:51;;;;;;;3.20;3.10;;;10.20;99.90;;;;;;5094992;28;20212;-69
2022/12/29 01:28:16;;;;;;;3.00;2.80;;;10.20;99.90;;;;;;5094811;28;20571;-69
2022/12/29 01:30:42;;;;;;;3.20;3.10;;;10.20;99.90;;;;;;5094928;28;20189;-69
2022/12/29 01:33:08;;;;;;;2.93;2.73;;;10.20;99.90;;;;;;5096185;28;20201;-69
2022/12/29 01:35:33;;;;;;;3.10;2.90;;;10.10;99.90;;;;;;5095512;28;20637;-69
2022/12/29 01:37:59;;;;;;;3.10;2.90;;;10.20;99.90;;;;;;5095887;28;20230;-68
2022/12/29 01:40:25;;;;;;;3.17;2.97;;;10.10;99.90;;;;;;5095923;28;20680;-69
2022/12/29 01:42:51;;;;;;;3.13;2.93;;;10.20;99.90;;;;;;5095756;28;20196;-68
2022/12/29 01:45:17;;;;;;;2.80;2.70;;;10.20;99.90;;;;;;5094588;28;20736;-69
2022/12/29 01:48:04;;;;;;;3.10;3.00;;;10.10;99.90;;;;;;5095796;28;20222;-68
2022/12/29 01:50:40;;;;;;;3.00;2.90;;;10.30;99.90;;;;;;5094583;28;20181;-68
2022/12/29 01:53:16;;;;;;;2.90;2.80;;;10.30;99.90;;;;;;5094450;28;20177;-68
2022/12/29 01:55:55;;;;;;;2.80;2.70;;;10.40;99.90;;;;;;5095881;28;20161;-69
2022/12/29 01:58:27;;;;;;;3.30;3.10;;;10.40;99.90;;;;;;5095600;28;20162;-69
2022/12/29 02:00:53;;;;;;;2.90;2.80;;;10.30;99.90;;;;;;5094334;28;20684;-69
2022/12/29 02:03:21;;;;;;;3.10;2.80;;;10.30;99.90;;;;;;5096573;28;20181;-68
2022/12/29 02:05:59;;;;;;;2.87;2.77;;;10.30;99.90;;;;;;5094313;28;20205;-68
2022/12/29 02:08:28;;;;;;;2.90;2.80;;;10.30;99.90;;;;;;5095527;28;20204;-68
2022/12/29 02:10:56;;;;;;;2.93;2.73;;;10.30;99.90;;;;;;5095698;28;20207;-68
2022/12/29 02:13:25;;;;;;;2.80;2.60;;;10.40;99.90;;;;;;5095648;28;20173;-69
2022/12/29 02:15:59;;;;;;;2.70;2.60;;;10.40;99.90;;;;;;5096038;28;20674;-68
2022/12/29 02:18:35;;;;;;;2.70;2.60;;;10.50;99.90;;;;;;5095742;28;20726;-68
2022/12/29 02:21:25;;;;;;;2.60;2.50;;;10.50;99.90;;;;;;5094335;28;20168;-68
2022/12/29 02:24:21;;;;;;;3.00;2.80;;;10.60;99.90;;;;;;5095950;28;20249;-68
2022/12/29 02:27:04;;;;;;;2.60;2.50;;;10.80;99.90;;;;;;5095310;28;20164;-68
2022/12/29 02:29:39;;;;;;;3.10;2.90;;;10.80;99.90;;;;;;5094164;28;20200;-68
2022/12/29 02:32:26;;;;;;;3.00;2.80;;;10.90;99.90;;;;;;5095133;28;20233;-69
2022/12/29 02:35:15;;;;;;;2.97;2.77;;;10.90;99.90;;;;;;5095586;28;20233;-69
2022/12/29 02:37:59;;;;;;;2.80;2.70;;;10.80;99.90;;;;;;5084729;28;20211;-69
2022/12/29 02:40:51;;;;;;;2.80;2.70;;;10.70;99.90;;;;;;5093742;28;20201;-69
2022/12/29 02:43:31;;;;;;;2.60;2.50;;;10.70;99.90;;;;;;5094475;28;20200;-68
2022/12/29 02:46:04;;;;;;;2.70;2.60;;;10.70;99.90;;;;;;5093549;28;20673;-68
2022/12/29 02:48:30;;;;;;;2.70;2.60;;;10.60;99.90;;;;;;5094679;28;20736;-69
2022/12/29 02:50:58;;;;;;;2.63;2.53;;;10.60;99.90;;;;;;5093421;28;20204;-69
2022/12/29 02:56:10;;;;;;;3.03;2.87;;;10.60;99.90;;;;;;5095110;28;20208;-69
2022/12/29 02:58:36;;;;;;;3.00;2.90;;;10.70;99.90;;;;;;5094497;28;20685;-69
2022/12/29 03:01:16;;;;;;;2.70;2.60;;;10.70;99.90;;;;;;5094595;28;20185;-69
2022/12/29 03:03:45;;;;;;;3.00;2.80;;;10.80;99.90;;;;;;5094717;28;20173;-70
2022/12/29 03:06:40;;;;;;;2.80;2.70;;;10.90;99.90;;;;;;5094493;28;20204;-68
2022/12/29 03:09:12;;;;;;;2.90;2.80;;;11.00;99.90;;;;;;5074084;28;20204;-67
2022/12/29 03:12:13;;;;;;;3.00;2.77;;;11.00;99.90;;;;;;5093101;28;20177;-69
2022/12/29 03:18:05;;;;;;;3.00;2.60;;;11.10;99.90;;;;;;5094897;28;20255;-68
2022/12/29 03:20:52;;;;;;;3.30;3.10;;;11.10;99.90;;;;;;5095120;28;20189;-69
2022/12/29 03:23:21;;;;;;;3.00;2.80;;;11.20;99.90;;;;;;5096381;28;20165;-69
2022/12/29 03:25:51;;;;;;;2.72;2.63;;;11.20;99.90;;;;;;5096123;28;20686;-69
2022/12/29 03:28:29;;;;;;;3.13;2.90;;;11.10;99.90;;;;;;5095951;28;20192;-69
2022/12/29 03:30:57;;;;;;;2.90;2.80;;;11.10;99.90;;;;;;5095035;28;20260;-69
2022/12/29 03:33:26;;;;;;;2.87;2.60;;;11.10;99.90;;;;;;5094793;28;20173;-67
2022/12/29 03:35:57;;;;;;;2.70;2.60;;;11.10;99.90;;;;;;5094993;28;20173;-69
2022/12/29 03:38:39;;;;;;;2.97;2.78;;;11.00;99.90;;;;;;5094269;28;20173;-69
2022/12/29 03:41:11;;;;;;;3.03;2.83;;;11.00;99.90;;;;;;5094270;28;20244;-69
2022/12/29 03:43:37;;;;;;;3.33;3.03;;;10.80;99.90;;;;;;5093802;28;20663;-69
2022/12/29 03:46:03;;;;;;;3.00;2.75;;;10.70;99.90;;;;;;5092494;28;20280;-68
2022/12/29 03:48:29;;;;;;;2.90;2.80;;;10.60;99.90;;;;;;5094138;28;20195;-69
2022/12/29 03:50:54;;;;;;;4.37;3.00;;;10.50;99.90;;;;;;5093968;28;20531;-69
2022/12/29 03:53:21;;;;;;;3.00;2.90;;;10.40;99.90;;;;;;5093785;28;20634;-69
2022/12/29 03:55:46;;;;;;;2.80;2.70;;;10.40;99.90;;;;;;5093943;28;20178;-69
2022/12/29 03:58:12;;;;;;;3.87;3.10;;;10.30;99.90;;;;;;5093319;28;20188;-69
2022/12/29 04:00:38;;;;;;;3.23;3.03;;;10.30;99.90;;;;;;5091497;28;20193;-69
2022/12/29 04:03:03;;;;;;;3.30;3.10;;;10.30;99.90;;;;;;5093660;28;20181;-70
2022/12/29 04:05:30;;;;;;;3.03;2.80;;;10.30;99.90;;;;;;5093443;28;20277;-69
2022/12/29 04:07:56;;;;;;;5.40;2.90;;;10.30;99.90;;;;;;5093725;28;20173;-69
2022/12/29 04:10:22;;;;;;;3.03;2.87;;;10.30;99.90;;;;;;5093350;28;20193;-69
2022/12/29 04:12:48;;;;;;;4.13;2.90;;;10.20;99.90;;;;;;5093789;28;20633;-69
2022/12/29 04:15:14;;;;;;;3.20;2.97;;;10.20;99.90;;;;;;5093406;28;20177;-69
2022/12/29 04:17:39;;;;;;;3.13;3.03;;;10.20;99.90;;;;;;5093816;28;20693;-69
2022/12/29 04:23:01;;;;;;;3.00;2.80;;;10.20;99.90;;;;;;5093676;28;20231;-69
2022/12/29 04:25:27;;;;;;;3.20;3.00;;;10.20;99.90;;;;;;5093299;28;20193;-70
2022/12/29 04:27:53;;;;;;;3.30;3.10;;;10.20;99.90;;;;;;5093214;28;20566;-69
2022/12/29 04:30:18;;;;;;;3.17;3.07;;;10.30;99.90;;;;;;5093189;28;20306;-69
2022/12/29 04:32:44;;;;;;;3.23;3.03;;;10.30;99.90;;;;;;5093536;28;20524;-69
2022/12/29 04:35:10;;;;;;;3.33;3.00;;;10.40;99.90;;;;;;5093910;28;20181;-69
2022/12/29 04:37:35;;;;;;;2.90;2.70;;;10.40;99.90;;;;;;5093205;28;20177;-69
2022/12/29 04:40:01;;;;;;;3.37;3.07;;;10.50;99.90;;;;;;5093087;28;20268;-69
2022/12/29 04:42:27;;;;;;;2.93;2.73;;;10.60;99.90;;;;;;5093155;28;20181;-69
2022/12/29 04:44:52;;;;;;;3.13;2.90;;;10.60;99.90;;;;;;5093132;28;20216;-68
2022/12/29 04:47:18;;;;;;;3.20;3.00;;;10.60;99.90;;;;;;5093226;28;20539;-68
2022/12/29 04:49:44;;;;;;;3.10;2.90;;;10.80;99.90;;;;;;5093123;28;20193;-69
2022/12/29 04:52:10;;;;;;;2.90;2.70;;;10.70;99.90;;;;;;5093577;28;20197;-69
2022/12/29 04:54:36;;;;;;;3.00;2.70;;;10.70;99.90;;;;;;5093549;28;20174;-68
2022/12/29 04:57:02;;;;;;;3.00;2.80;;;10.70;99.90;;;;;;5093459;28;20177;-69
2022/12/29 04:59:27;;;;;;;3.20;3.00;;;10.80;99.90;;;;;;5093595;28;20204;-69
2022/12/29 05:01:53;;;;;;;2.80;2.70;;;10.80;99.90;;;;;;5093739;28;20189;-68
2022/12/29 05:04:19;;;;;;;2.97;2.77;;;10.80;99.90;;;;;;5093653;28;20204;-68
2022/12/29 05:06:44;;;;;;;3.40;3.10;;;10.90;99.90;;;;;;5094157;28;20241;-68
2022/12/29 05:09:10;;;;;;;3.00;2.90;;;11.00;99.90;;;;;;5092042;28;20284;-70
2022/12/29 05:11:36;;;;;;;3.27;3.00;;;11.10;99.90;;;;;;5094321;28;20628;-70
2022/12/29 05:14:02;;;;;;;2.73;2.60;;;11.10;99.90;;;;;;5096646;28;20184;-69
2022/12/29 05:16:27;;;;;;;3.10;2.90;;;11.10;99.90;;;;;;5096624;28;20179;-69
2022/12/29 05:18:53;;;;;;;2.93;2.83;;;11.10;99.90;;;;;;5096406;28;20197;-69
2022/12/29 05:21:19;;;;;;;3.00;2.80;;;11.10;99.90;;;;;;5096526;28;20229;-69
2022/12/29 05:23:44;;;;;;;3.13;2.93;;;11.20;99.90;;;;;;5096831;28;20232;-68
2022/12/29 05:26:10;;;;;;;3.17;2.97;;;11.30;99.90;;;;;;5096413;28;20261;-68
2022/12/29 05:28:36;;;;;;;3.00;2.70;;;11.30;99.90;;;;;;5095999;28;20193;-69
2022/12/29 05:31:02;;;;;;;3.00;2.80;;;11.30;99.90;;;;;;5095154;28;20219;-70
2022/12/29 05:33:27;;;;;;;3.40;3.10;;;11.40;99.90;;;;;;5096245;28;20201;-69
2022/12/29 05:35:53;;;;;;;3.03;2.80;;;11.50;99.90;;;;;;5096112;28;20185;-69
2022/12/29 05:38:19;;;;;;;3.55;3.25;;;11.40;99.90;;;;;;5096052;28;20525;-68
2022/12/29 05:40:45;;;;;;;2.90;2.70;;;11.40;99.90;;;;;;5096045;28;20552;-69
2022/12/29 05:43:11;;;;;;;2.97;2.78;;;11.40;99.90;;;;;;5095708;28;20351;-68
2022/12/29 05:45:36;;;;;;;3.28;2.97;;;11.60;99.90;;;;;;5095942;28;20275;-69
2022/12/29 05:48:02;;;;;;;2.78;2.67;;;11.60;99.90;;;;;;5095975;28;20342;-68
2022/12/29 05:50:28;;;;;;;12.70;3.20;;;11.70;99.90;;;;;;5094429;28;20193;-68
2022/12/29 05:52:54;;;;;;;3.28;3.00;;;11.70;99.90;;;;;;5095720;28;20207;-69
2022/12/29 05:55:20;;;;;;;2.87;2.67;;;11.70;99.90;;;;;;5095786;28;20177;-70
2022/12/29 05:57:46;;;;;;;2.90;2.80;;;11.70;99.90;;;;;;5095451;28;20184;-69
2022/12/29 06:00:12;;;;;;;2.90;2.60;;;11.70;99.90;;;;;;5094290;28;20225;-69
2022/12/29 06:02:38;;;;;;;3.50;3.20;;;11.70;99.90;;;;;;5094138;28;20192;-69
2022/12/29 06:05:04;;;;;;;2.97;2.77;;;11.60;99.90;;;;;;5096091;28;20197;-69
2022/12/29 06:07:29;;;;;;;2.80;2.70;;;11.60;99.90;;;;;;5094238;28;20177;-69
2022/12/29 06:09:55;;;;;;;3.20;2.90;;;11.70;99.90;;;;;;5095471;28;20216;-69
2022/12/29 06:12:21;;;;;;;3.00;2.80;;;11.60;99.90;;;;;;5095717;28;20245;-69
2022/12/29 06:14:47;;;;;;;3.22;3.00;;;11.60;99.90;;;;;;5095394;28;20185;-69
2022/12/29 06:17:12;;;;;;;3.20;3.00;;;11.60;99.90;;;;;;5095653;28;20271;-70
2022/12/29 06:19:38;;;;;;;3.00;2.80;;;11.50;99.90;;;;;;5095341;28;20193;-68
2022/12/29 06:22:04;;;;;;;3.00;2.80;;;11.50;99.90;;;;;;5093343;28;20564;-68
2022/12/29 06:24:30;;;;;;;3.10;2.90;;;11.50;99.90;;;;;;5095631;28;20207;-69
2022/12/29 06:26:56;;;;;;;3.35;3.00;;;11.50;99.90;;;;;;5095260;28;20185;-69
2022/12/29 06:29:21;;;;;;;4.50;2.90;;;11.40;99.90;;;;;;5095613;28;20280;-68
2022/12/29 06:31:49;;;;;;;3.10;2.90;;;11.40;99.90;;;;;;5094974;28;20213;-69
2022/12/29 06:34:14;;;;;;;3.33;3.00;;;11.40;99.90;;;;;;5095602;28;20252;-69
2022/12/29 06:36:40;;;;;;;2.95;2.75;;;11.40;99.90;;;;;;5094540;28;20674;-70
2022/12/29 06:39:06;;;;;;;3.40;3.00;;;11.40;99.90;;;;;;5095259;28;20606;-71
2022/12/29 06:41:32;;;;;;;4.05;2.80;;;11.50;99.90;;;;;;5094890;28;20524;-70
2022/12/29 06:43:57;;;;;;;3.03;2.72;;;11.50;99.90;;;;;;5094943;28;20210;-70
2022/12/29 06:46:23;;;;;;;3.63;3.00;;;11.50;99.90;;;;;;5093784;28;20184;-70
2022/12/29 06:48:49;;;;;;;3.73;3.00;;;11.50;99.90;;;;;;5093649;28;20205;-70
2022/12/29 06:51:15;;;;;;;3.20;3.00;;;11.50;99.90;;;;;;5095077;28;20179;-70
2022/12/29 06:53:41;;;;;;;3.17;2.90;;;11.50;99.90;;;;;;5094861;28;20174;-70
2022/12/29 06:56:07;;;;;;;2.60;2.50;;;11.60;99.90;;;;;;5095043;28;20185;-70
2022/12/29 06:58:32;;;;;;;2.70;2.60;;;11.60;99.90;;;;;;5094525;28;20254;-69
2022/12/29 07:00:58;;;;;;;3.13;2.90;;;11.50;99.90;;;;;;5094732;28;20184;-69
2022/12/29 07:03:24;;;;;;;4.00;2.72;;;11.50;99.90;;;;;;5094603;28;20185;-68
2022/12/29 07:05:50;;;;;;;3.20;2.90;;;11.40;99.90;;;;;;5094400;28;20228;-69
2022/12/29 07:08:15;;;;;;;3.22;2.95;;;11.40;99.90;;;;;;5094420;28;20268;-69
2022/12/29 07:10:41;;;;;;;3.00;2.80;;;11.40;99.90;;;;;;5093125;28;20238;-69
2022/12/29 07:13:07;;;;;;;3.03;2.83;;;11.40;99.90;;;;;;5094359;28;20173;-69
2022/12/29 07:15:34;;;;;;;3.85;2.90;;;11.40;99.90;;;;;;5094341;28;20663;-69
2022/12/29 07:17:59;;;;;;;3.75;2.70;;;11.40;99.90;;;;;;5094441;28;20172;-69
2022/12/29 07:20:25;;;;;;;5.15;3.00;;;11.40;99.90;;;;;;5094207;28;20197;-69
2022/12/29 07:22:51;;;;;;;2.88;2.65;;;11.40;99.90;;;;;;5092954;28;20555;-69
2022/12/29 07:25:17;;;;;;;2.97;2.78;;;11.30;99.90;;;;;;5094811;28;20649;-69
2022/12/29 07:27:42;;;;;;;4.55;3.00;;;11.20;99.90;;;;;;5093022;28;20213;-69
2022/12/29 07:30:09;;;;;;;3.20;2.90;;;11.10;99.90;;;;;;5093996;28;20668;-69
2022/12/29 07:32:35;;;;;;;3.28;2.63;;;11.10;99.90;;;;;;5092665;28;20173;-69
2022/12/29 07:35:01;;;;;;;3.28;3.00;;;11.10;99.90;;;;;;5094232;28;20181;-69
2022/12/29 07:37:27;;;;;;;3.40;3.10;;;11.00;99.90;;;;;;5093954;28;20185;-69
2022/12/29 07:39:52;;;;;;;4.25;2.80;;;11.00;99.90;;;;;;5093870;28;20208;-68
2022/12/29 07:42:18;;;;;;;6.18;3.10;;;11.00;99.90;;;;;;5093947;28;20692;-70
2022/12/29 07:44:44;;;;;;;3.28;3.08;;;11.00;99.90;;;;;;5092159;28;20212;-69
2022/12/29 07:47:10;;;;;;;4.20;2.90;;;11.00;99.90;;;;;;5094384;28;20173;-69
2022/12/29 07:49:35;;;;;;;4.93;3.00;;;11.00;99.90;;;;;;5093651;28;20661;-68
2022/12/29 07:52:01;;;;;;;4.03;3.20;;;10.90;99.90;;;;;;5093585;28;20195;-67
2022/12/29 07:54:27;;;;;;;5.43;3.10;;;10.80;99.90;;;;;;5093822;28;20657;-68
2022/12/29 07:56:53;;;;;;;3.47;3.17;;;10.80;99.90;;;;;;5092259;28;20189;-68
2022/12/29 07:59:18;;;;;;;3.50;3.20;;;10.70;99.90;;;;;;5093377;28;20193;-68
2022/12/29 08:01:44;;;;;;;5.47;3.43;;;10.70;99.90;;;;;;5093615;28;20645;-68
2022/12/29 08:04:10;;;;;;;4.03;3.03;;;10.80;99.90;;;;;;5093392;28;20187;-68
2022/12/29 08:06:37;;;;;;;6.07;3.20;;;10.70;99.90;;;;;;5093715;28;20161;-69
2022/12/29 08:09:03;;;;;;;3.95;3.50;;;10.60;99.90;;;;;;5093403;28;20281;-71
2022/12/29 08:11:29;;;;;;;5.03;3.20;;;10.60;99.90;;;;;;5093480;28;20248;-71
2022/12/29 08:13:55;;;;;;;4.57;3.47;;;10.60;99.90;;;;;;5092056;28;20177;-71
2022/12/29 08:16:20;;;;;;;3.13;2.90;;;10.50;99.90;;;;;;5093425;28;20184;-71
2022/12/29 08:18:46;;;;;;;4.87;3.20;;;10.50;99.90;;;;;;5093576;28;20219;-71
2022/12/29 08:21:12;;;;;;;7.83;3.57;;;10.50;99.90;;;;;;5093181;28;20176;-71
2022/12/29 08:23:38;;;;;;;4.33;3.10;;;10.60;99.90;;;;;;5093262;28;20177;-70
2022/12/29 08:26:05;;;;;;;3.50;3.20;;;10.60;99.90;;;;;;5093080;28;20224;-69
2022/12/29 08:28:32;;;;;;;4.90;3.23;;;10.70;99.90;;;;;;5093084;28;20200;-69
2022/12/29 08:30:59;;;;;;;5.37;3.37;;;10.80;99.90;;;;;;5093276;28;20173;-70
2022/12/29 08:33:25;;;;;;;5.85;3.38;;;10.80;99.90;;;;;;5093352;28;20164;-70
2022/12/29 08:35:51;;;;;;;5.90;2.90;;;10.80;99.90;;;;;;5091962;28;20276;-70
2022/12/29 08:38:17;;;;;;;5.20;3.45;;;10.90;99.90;;;;;;5091848;28;20276;-70
2022/12/29 08:40:43;;;;;;;4.95;3.35;;;10.90;99.90;;;;;;5093561;28;20188;-70
2022/12/29 08:43:09;;;;;;;3.30;2.92;;;11.00;99.90;;;;;;5093239;28;20193;-69
2022/12/29 08:45:35;;;;;;;4.60;3.23;;;10.90;99.90;;;;;;5093921;28;20188;-69
2022/12/29 08:48:01;;;;;;;4.47;3.22;;;10.90;99.90;;;;;;5097054;28;20180;-69
2022/12/29 08:50:27;;;;;;;5.57;3.30;;;10.90;99.90;;;;;;5095668;28;20246;-70
2022/12/29 08:52:53;;;;;;;6.60;3.80;;;10.90;99.90;;;;;;5097493;28;20178;-69
2022/12/29 08:55:18;;;;;;;3.67;3.22;;;10.90;99.90;;;;;;5097122;28;20177;-70
2022/12/29 08:57:44;;;;;;;4.17;3.20;;;10.90;99.90;;;;;;5096659;28;20177;-70
2022/12/29 09:00:11;;;;;;;6.67;3.47;;;10.90;99.90;;;;;;5096691;28;20204;-70
2022/12/29 09:02:37;;;;;;;4.40;3.30;;;10.90;99.90;;;;;;5096620;28;20184;-69
2022/12/29 09:05:03;;;;;;;5.40;3.30;;;11.10;99.90;;;;;;5096576;28;20570;-70
2022/12/29 09:07:29;;;;;;;4.10;2.97;;;11.00;99.90;;;;;;5095299;28;20176;-70
2022/12/29 09:09:54;;;;;;;5.07;3.20;;;11.10;99.90;;;;;;5095306;28;20223;-70
2022/12/29 09:12:20;;;;;;;6.15;3.25;;;11.00;99.90;;;;;;5096459;28;20201;-70
2022/12/29 09:14:46;;;;;;;4.43;3.30;;;11.00;99.90;;;;;;5096362;28;20181;-70
2022/12/29 09:19:57;;;;;;;5.22;3.63;;;10.80;99.90;;;;;;5096729;28;20200;-70
2022/12/29 09:22:22;;;;;;;6.23;3.30;;;10.60;99.90;;;;;;5095166;28;20252;-70
2022/12/29 09:24:48;;;;;;;5.53;3.80;;;10.40;99.90;;;;;;5095232;28;20305;-70
2022/12/29 09:27:14;;;;;;;6.77;4.20;;;10.20;99.90;;;;;;5096338;28;20546;-74
2022/12/29 09:29:40;;;;;;;5.47;3.80;;;9.90;99.90;;;;;;5095137;28;20205;-72
2022/12/29 09:32:06;;;;;;;7.47;3.70;;;9.60;99.90;;;;;;5097065;28;20212;-73
2022/12/29 09:34:31;;;;;;;4.17;3.50;;;9.50;99.90;;;;;;5097433;28;20184;-77
2022/12/29 09:36:57;;;;;;;8.37;3.37;;;9.40;99.90;;;;;;5096328;28;20192;-67
2022/12/29 09:39:23;;;;;;;4.93;3.37;;;9.40;99.90;;;;;;5097161;28;20205;-67
2022/12/29 09:42:18;;;;;;;4.40;3.30;;;9.30;99.90;;;;;;5097499;28;20212;-67
2022/12/29 09:45:03;;;;;;;8.23;3.90;;;9.30;99.90;;;;;;5095261;28;20217;-67
2022/12/29 09:47:30;;;;;;;4.70;3.40;;;9.30;99.90;;;;;;5095175;28;20193;-67
2022/12/29 09:50:09;;;;;;;6.40;3.47;;;9.40;99.90;;;;;;5096083;28;20193;-67
2022/12/29 09:52:43;;;;;;;6.77;3.40;;;9.50;99.90;;;;;;5095831;28;20157;-67
2022/12/29 09:55:15;;;;;;;6.97;3.87;;;9.60;99.90;;;;;;5094498;28;20215;-67
2022/12/29 09:57:58;;;;;;;5.70;3.33;;;9.60;99.90;;;;;;5094607;28;20172;-68
2022/12/29 10:00:38;;;;;;;7.10;3.43;;;9.60;99.90;;;;;;5095388;28;20673;-68
2022/12/29 10:03:19;;;;;;;3.63;3.30;;;9.60;99.90;;;;;;5094276;28;20181;-68
2022/12/29 10:06:09;;;;;;;6.27;4.17;;;9.70;99.90;;;;;;5095396;28;20228;-67
2022/12/29 10:08:46;;;;;;;4.97;3.60;;;9.70;99.90;;;;;;5095764;28;20193;-68
2022/12/29 10:11:12;;;;;;;5.57;3.50;;;9.70;99.90;;;;;;5094117;28;20699;-68
2022/12/29 10:14:02;;;;;;;7.47;4.00;;;9.70;99.90;;;;;;5093836;28;20209;-67
2022/12/29 10:16:49;;;;;;;9.20;3.73;;;9.80;99.90;;;;;;5095559;28;20315;-67
2022/12/29 10:19:14;;;;;;;7.70;4.07;;;9.90;99.90;;;;;;5095041;28;20224;-67
2022/12/29 10:21:43;;;;;;;8.20;3.53;;;10.10;99.90;;;;;;5095118;28;20200;-67
2022/12/29 10:24:12;;;;;;;5.40;3.20;;;10.20;99.90;;;;;;5093747;28;20219;-66
2022/12/29 10:26:41;;;;;;;4.60;3.63;;;10.30;99.90;;;;;;5095393;28;20634;-67
2022/12/29 10:29:18;;;;;;;3.50;3.20;;;10.30;99.90;;;;;;5095008;28;20196;-66
2022/12/29 10:31:49;;;;;;;9.23;3.80;;;10.40;99.90;;;;;;5094857;28;20268;-67
2022/12/29 10:34:36;;;;;;;6.93;3.37;;;10.40;99.90;;;;;;5093587;28;20304;-67
2022/12/29 10:37:18;;;;;;;8.03;3.80;;;10.50;99.90;;;;;;5093855;28;20595;-67
2022/12/29 10:39:49;;;;;;;6.47;3.57;;;10.70;99.90;;;;;;5094957;28;20200;-66
2022/12/29 10:42:26;;;;;;;7.47;3.50;;;10.70;99.90;;;;;;5095059;28;20629;-66
2022/12/29 10:44:53;;;;;;;6.03;3.40;;;10.70;99.90;;;;;;5093273;28;20234;-66
2022/12/29 10:47:24;;;;;;;9.00;3.60;;;10.80;99.90;;;;;;5094651;28;20178;-66
2022/12/29 10:49:50;;;;;;;9.98;3.88;;;10.80;99.90;;;;;;5094658;28;20199;-65
2022/12/29 10:52:19;;;;;;;6.77;3.43;;;10.80;99.90;;;;;;5094989;28;20177;-67
2022/12/29 10:55:03;;;;;;;7.40;3.40;;;10.80;99.90;;;;;;5094507;28;20172;-67
2022/12/29 10:57:43;;;;;;;8.30;3.67;;;10.80;99.90;;;;;;5093155;28;20311;-68
2022/12/29 11:00:20;;;;;;;5.63;3.70;;;10.80;99.90;;;;;;5094371;28;20562;-68
2022/12/29 11:02:49;;;;;;;5.67;3.60;;;10.90;99.90;;;;;;5094963;28;20169;-67
2022/12/29 11:05:32;;;;;;;8.43;3.70;;;10.80;99.90;;;;;;5094252;28;20201;-73
2022/12/29 11:08:03;;;;;;;5.40;3.40;;;10.90;99.90;;;;;;5094218;28;20252;-74
2022/12/29 11:10:33;;;;;;;7.00;3.23;;;10.90;99.90;;;;;;5092968;28;20235;-74
2022/12/29 11:13:16;;;;;;;12.97;3.50;;;10.90;99.90;;;;;;5094292;28;20586;-73
2022/12/29 11:15:48;;;;;;;4.30;3.17;;;10.90;99.90;;;;;;5092964;28;20209;-66
2022/12/29 11:18:21;;;;;;;10.77;3.67;;;10.90;99.90;;;;;;5094296;28;20641;-67
2022/12/29 11:20:48;;;;;;;7.35;3.00;;;10.90;99.90;;;;;;5094074;28;20661;-66
2022/12/29 11:23:38;;;;;;;5.70;3.00;;;10.90;99.90;;;;;;5094254;28;20572;-67
2022/12/29 11:26:15;;;;;;;6.93;3.47;;;10.90;99.90;;;;;;5094198;28;20652;-67
2022/12/29 11:28:44;;;;;;;6.97;3.50;;;10.90;99.90;;;;;;5093850;28;20188;-67
2022/12/29 11:31:10;;;;;;;6.40;3.10;;;10.90;99.90;;;;;;5093762;28;20181;-68
2022/12/29 11:33:38;;;;;;;10.27;3.78;;;10.90;99.90;;;;;;5094306;28;20173;-68
2022/12/29 11:36:22;;;;;;;7.40;3.30;;;10.90;99.90;;;;;;5092684;28;20283;-68
2022/12/29 11:38:51;;;;;;;5.10;3.10;;;10.90;99.90;;;;;;5092928;28;20201;-68
2022/12/29 11:41:27;;;;;;;10.87;3.40;;;10.90;99.90;;;;;;5092886;28;20213;-71
2022/12/29 11:43:56;;;;;;;9.53;3.60;;;10.90;99.90;;;;;;5092227;28;20197;-70
2022/12/29 11:46:33;;;;;;;6.73;3.20;;;10.90;99.90;;;;;;5092771;28;20703;-75
2022/12/29 11:49:00;;;;;;;11.57;3.93;;;10.90;99.90;;;;;;5094344;28;20192;-76
2022/12/29 11:51:59;;;;;;;8.88;3.20;;;10.90;99.90;;;;;;5092737;28;20606;-75
2022/12/29 11:54:31;;;;;;;8.00;3.57;;;10.90;99.90;;;;;;5082888;28;20188;-72
2022/12/29 11:57:07;;;;;;;13.57;3.60;;;10.90;99.90;;;;;;5093655;28;20185;-73
2022/12/29 11:59:41;;;;;;;7.55;3.42;;;10.90;99.90;;;;;;5093606;28;20200;-73
2022/12/29 12:02:21;;;;;;;12.25;4.10;;;10.90;99.90;;;;;;5094993;28;20185;-75
2022/12/29 12:04:52;;;;;;;6.00;3.07;;;11.00;99.90;;;;;;5094035;28;20193;-73
2022/12/29 12:07:27;;;;;;;11.07;3.50;;;10.90;99.90;;;;;;5094281;28;20683;-76
2022/12/29 12:09:58;;;;;;;5.93;3.20;;;10.90;99.90;;;;;;5094651;28;20570;-77
2022/12/29 12:13:05;;;;;;;3.78;2.85;;;10.90;99.90;;;;;;5094540;28;20158;-77
2022/12/29 12:15:43;;;;;;;10.60;3.37;;;10.90;99.90;;;;;;5075011;28;20205;-74
2022/12/29 12:18:41;;;;;;;6.75;3.55;;;10.90;99.90;;;;;;5092384;28;20185;-69
2022/12/29 12:21:20;;;;;;;7.10;3.30;;;10.90;99.90;;;;;;5094103;28;20166;-66
2022/12/29 12:24:17;;;;;;;7.70;2.90;;;10.90;99.90;;;;;;5097709;28;20679;-66
2022/12/29 12:26:49;;;;;;;10.00;3.47;;;10.90;99.90;;;;;;5097776;28;20230;-69
2022/12/29 12:29:22;;;;;;;9.13;3.23;;;11.00;99.90;;;;;;5097024;28;20193;-67
2022/12/29 12:31:59;;;;;;;6.00;3.60;;;11.00;99.90;;;;;;5097262;28;20205;-69
2022/12/29 12:34:39;;;;;;;9.33;4.13;;;10.90;99.90;;;;;;5096053;28;20195;-66
2022/12/29 12:37:04;;;;;;;5.80;3.13;;;10.90;99.90;;;;;;5097292;28;20162;-68
2022/12/29 12:39:43;;;;;;;11.35;3.35;;;10.90;99.90;;;;;;5097059;28;20672;-72
2022/12/29 12:42:47;;;;;;;10.60;3.47;;;10.90;99.90;;;;;;5097051;28;20169;-67
2022/12/29 12:45:25;;;;;;;10.27;3.47;;;10.80;99.90;;;;;;5096960;28;20185;-67
2022/12/29 12:48:17;;;;;;;6.23;3.33;;;10.80;99.90;;;;;;5097162;28;20719;-67
2022/12/29 12:51:20;;;;;;;11.23;3.70;;;10.80;99.90;;;;;;5097307;28;20168;-68
2022/12/29 12:53:59;;;;;;;7.70;3.60;;;10.70;99.90;;;;;;5073177;28;20185;-68
2022/12/29 12:56:25;;;;;;;9.37;3.80;;;10.70;99.90;;;;;;5095722;28;20222;-67
2022/12/29 12:58:58;;;;;;;7.93;3.50;;;10.70;99.90;;;;;;5096502;28;20225;-67
2022/12/29 13:02:01;;;;;;;4.13;3.13;;;10.70;99.90;;;;;;5096561;28;20207;-67
2022/12/29 13:05:14;;;;;;;9.82;3.63;;;10.70;99.90;;;;;;5096598;28;20173;-67
2022/12/29 13:08:07;;;;;;;9.05;3.58;;;10.60;99.90;;;;;;5094483;28;20193;-69
2022/12/29 13:10:33;;;;;;;7.03;3.63;;;10.60;99.90;;;;;;5095298;28;20213;-67
2022/12/29 13:13:20;;;;;;;5.80;3.57;;;10.60;99.90;;;;;;5086351;28;20234;-67
2022/12/29 13:16:01;;;;;;;9.73;3.47;;;10.60;99.90;;;;;;5096209;28;20189;-66
2022/12/29 13:19:01;;;;;;;8.37;3.53;;;10.60;99.90;;;;;;5096664;28;20212;-67
2022/12/29 13:21:39;;;;;;;7.37;3.23;;;10.60;99.90;;;;;;5095994;28;20535;-67
2022/12/29 13:24:20;;;;;;;7.60;3.40;;;10.60;99.90;;;;;;5076296;28;20178;-67
2022/12/29 13:26:53;;;;;;;8.82;3.53;;;10.60;99.90;;;;;;5075829;28;20650;-67
2022/12/29 13:29:22;;;;;;;15.63;4.07;;;10.60;99.90;;;;;;5075819;28;20231;-67
2022/12/29 13:32:08;;;;;;;7.33;3.10;;;10.60;99.90;;;;;;5090097;28;20185;-65
2022/12/29 13:34:57;;;;;;;13.30;3.47;;;10.50;99.90;;;;;;5095755;28;20617;-66
2022/12/29 13:37:27;;;;;;;8.37;3.47;;;10.50;99.90;;;;;;5089299;28;20196;-65
2022/12/29 13:40:09;;;;;;;11.83;3.57;;;10.50;99.90;;;;;;5094204;28;20801;-66
2022/12/29 13:42:36;;;;;;;9.13;3.50;;;10.50;99.90;;;;;;5095489;28;20628;-66
2022/12/29 13:45:06;;;;;;;12.57;3.73;;;10.50;99.90;;;;;;5095844;28;20633;-67
2022/12/29 13:47:48;;;;;;;6.83;3.27;;;10.50;99.90;;;;;;5095825;28;20179;-66